createdAt,value
2023-02-28T06:03:04.671Z,25.50
2023-02-28T06:07:05.647Z,25.50
2023-02-28T06:08:05.664Z,25.52
2023-02-28T06:09:05.728Z,25.52
2023-02-28T06:10:05.741Z,25.52
2023-02-28T06:11:05.758Z,25.46
2023-02-28T06:13:05.751Z,25.42
2023-02-28T06:14:05.797Z,25.36
2023-02-28T06:15:05.842Z,25.42
2023-02-28T06:16:04.932Z,25.52
2023-02-28T06:20:05.130Z,25.35
2023-02-28T06:21:06.180Z,25.36
2023-02-28T06:22:06.793Z,25.41
2023-02-28T06:24:06.349Z,25.38
2023-02-28T06:25:06.359Z,25.37
2023-02-28T06:26:06.430Z,25.44
2023-02-28T06:27:06.658Z,25.26
2023-02-28T06:28:06.618Z,25.32
2023-02-28T06:29:05.622Z,25.43
2023-02-28T06:30:05.636Z,25.28
2023-02-28T06:31:06.738Z,25.16
2023-02-28T06:32:06.753Z,25.25
2023-02-28T06:33:06.870Z,25.26
2023-02-28T06:34:06.919Z,25.31
2023-02-28T06:40:07.174Z,25.22
2023-02-28T06:41:06.236Z,25.19
2023-02-28T06:42:07.285Z,25.22
2023-02-28T06:44:07.376Z,25.28
2023-02-28T06:45:07.469Z,25.28
2023-02-28T06:46:07.514Z,25.36
2023-02-28T06:50:06.724Z,25.22
2023-02-28T06:57:08.075Z,25.22
2023-02-28T06:58:07.094Z,25.28
2023-02-28T07:00:08.211Z,25.30
2023-02-28T07:03:08.366Z,25.25
2023-02-28T07:04:08.437Z,25.27
2023-02-28T07:06:07.524Z,25.27
2023-02-28T07:08:07.634Z,25.30
2023-02-28T07:09:08.718Z,25.31
2023-02-28T07:14:08.972Z,25.33
2023-02-28T07:15:08.993Z,25.34
2023-02-28T07:20:09.256Z,25.37
2023-02-28T07:21:09.299Z,25.40
2023-02-28T07:27:09.578Z,25.33
2023-02-28T07:29:09.661Z,25.36
2023-02-28T07:31:09.740Z,25.43
2023-02-28T07:32:08.903Z,25.61
2023-02-28T07:35:08.925Z,25.52
2023-02-28T07:39:10.113Z,25.67
2023-02-28T09:45:12.885Z,26.89
2023-02-28T09:47:12.780Z,26.62
2023-02-28T09:48:12.753Z,26.43
2023-02-28T09:49:12.791Z,26.44
2023-02-28T09:51:12.794Z,26.33
2023-02-28T09:52:12.814Z,26.25
2023-02-28T09:53:12.832Z,25.99
2023-02-28T09:54:12.843Z,25.80
2023-02-28T09:55:12.855Z,25.81
2023-02-28T09:56:12.873Z,25.81
2023-02-28T09:57:12.852Z,25.62
2023-02-28T09:58:12.848Z,25.70
2023-02-28T09:59:12.840Z,25.83
2023-02-28T10:00:12.838Z,25.77
2023-02-28T10:01:12.920Z,25.78
2023-02-28T10:02:12.834Z,25.80
2023-02-28T10:04:12.880Z,25.90
2023-02-28T10:05:12.822Z,25.82
2023-02-28T10:06:12.824Z,25.81
2023-02-28T10:07:12.844Z,25.72
2023-02-28T10:08:12.824Z,25.64
2023-02-28T10:09:12.833Z,25.60
2023-02-28T10:10:12.856Z,25.70
2023-02-28T10:11:12.859Z,25.61
2023-02-28T10:12:12.885Z,25.63
2023-02-28T10:16:13.063Z,25.09
2023-02-28T10:20:12.869Z,24.10
2023-02-28T10:21:12.896Z,24.12
2023-02-28T10:22:12.877Z,23.84
2023-02-28T10:23:12.865Z,23.96
2023-02-28T10:26:12.881Z,23.77
2023-02-28T10:27:12.871Z,24.01
2023-02-28T10:28:12.886Z,24.17
2023-02-28T10:29:12.872Z,24.09
2023-02-28T10:31:12.950Z,23.85
2023-02-28T10:32:12.901Z,23.84
2023-02-28T10:33:12.891Z,23.75
2023-02-28T10:34:12.869Z,23.82
2023-02-28T10:36:12.934Z,23.81
2023-02-28T10:37:12.901Z,24.12
2023-02-28T10:39:12.944Z,23.87
2023-02-28T10:40:12.969Z,23.96
2023-02-28T10:41:12.972Z,23.69
2023-02-28T10:42:12.994Z,23.51
2023-02-28T10:43:13.013Z,23.62
2023-02-28T10:44:13.005Z,23.66
2023-02-28T10:45:13.011Z,23.63
2023-02-28T10:49:13.056Z,23.02
2023-02-28T10:50:13.038Z,22.94
2023-02-28T10:51:13.410Z,23.10
2023-02-28T10:52:13.036Z,23.16
2023-02-28T10:53:13.035Z,23.13
2023-02-28T10:54:13.027Z,23.21
2023-02-28T10:56:13.019Z,23.35
2023-02-28T10:58:13.028Z,23.17
2023-02-28T11:01:13.028Z,23.01
2023-02-28T11:05:12.985Z,22.60
2023-02-28T11:06:13.000Z,22.55
2023-02-28T11:07:13.014Z,22.42
2023-02-28T11:08:13.007Z,22.34
2023-02-28T11:09:12.971Z,22.41
2023-02-28T11:10:12.965Z,22.23
2023-02-28T11:11:12.963Z,22.13
2023-02-28T11:12:12.955Z,22.26
2023-02-28T11:13:12.970Z,21.91
2023-02-28T11:14:12.954Z,22.05
2023-02-28T11:15:12.947Z,21.78
2023-02-28T11:16:13.037Z,21.66
2023-02-28T11:18:12.948Z,21.75
2023-02-28T11:20:12.942Z,21.45
2023-02-28T11:22:12.959Z,21.34
2023-02-28T11:24:12.963Z,21.21
2023-02-28T11:25:11.966Z,21.21
2023-02-28T11:26:13.017Z,21.06
2023-02-28T11:27:13.009Z,21.12
2023-02-28T11:28:13.016Z,21.01
2023-02-28T11:29:13.034Z,20.98
2023-02-28T11:30:13.033Z,21.11
2023-02-28T11:31:13.171Z,20.79
2023-02-28T11:32:13.265Z,20.85
2023-02-28T11:34:13.068Z,20.73
2023-02-28T11:35:13.085Z,20.60
2023-02-28T11:36:13.153Z,20.76
2023-02-28T11:37:13.097Z,20.68
2023-02-28T11:38:13.118Z,20.50
2023-02-28T11:39:12.166Z,20.55
2023-02-28T11:40:13.153Z,20.52
2023-02-28T11:43:12.158Z,20.25
2023-02-28T11:45:13.174Z,20.33
2023-02-28T11:49:13.242Z,20.25
2023-02-28T11:50:13.270Z,20.27
2023-02-28T11:51:12.272Z,20.25
2023-02-28T11:52:13.295Z,20.18
2023-02-28T11:53:13.289Z,20.09
2023-02-28T11:54:12.290Z,20.17
2023-02-28T11:55:13.325Z,20.25
2023-02-28T11:56:13.322Z,20.45
2023-02-28T11:57:12.346Z,20.25
2023-02-28T11:58:13.340Z,20.01
2023-02-28T11:59:13.336Z,19.98
2023-02-28T12:00:12.345Z,20.09
2023-02-28T12:01:12.349Z,20.00
2023-02-28T12:02:13.416Z,20.05
2023-02-28T12:03:12.417Z,20.11
2023-02-28T12:04:13.401Z,20.11
2023-02-28T12:05:13.432Z,20.11
2023-02-28T12:06:12.410Z,20.03
2023-02-28T12:07:12.452Z,20.17
2023-02-28T12:08:13.432Z,20.03
2023-02-28T12:09:12.432Z,19.95
2023-02-28T12:10:12.456Z,20.12
2023-02-28T12:11:12.472Z,20.37
2023-02-28T12:12:13.472Z,20.01
2023-02-28T12:13:13.472Z,19.94
2023-02-28T12:14:13.482Z,19.97
2023-02-28T12:15:12.475Z,19.94
2023-02-28T12:16:12.518Z,20.00
2023-02-28T12:17:12.480Z,20.02
2023-02-28T12:18:13.533Z,20.08
2023-02-28T12:19:12.490Z,20.06
2023-02-28T12:20:13.502Z,20.00
2023-02-28T12:21:12.546Z,20.01
2023-02-28T12:22:13.516Z,19.97
2023-02-28T12:23:13.527Z,20.16
2023-02-28T12:24:12.525Z,20.21
2023-02-28T12:25:12.549Z,20.02
2023-02-28T12:26:12.571Z,20.03
2023-02-28T12:27:12.611Z,20.13
2023-02-28T12:28:13.581Z,20.24
2023-02-28T12:29:13.588Z,20.15
2023-02-28T12:30:12.589Z,20.30
2023-02-28T12:31:12.576Z,20.35
2023-02-28T12:32:13.719Z,20.42
2023-02-28T12:33:12.919Z,20.58
2023-02-28T12:34:13.577Z,20.54
2023-02-28T12:35:13.589Z,20.53
2023-02-28T12:36:13.660Z,20.75
2023-02-28T12:37:13.928Z,20.61
2023-02-28T12:38:13.608Z,20.69
2023-02-28T12:39:13.597Z,20.59
2023-02-28T12:41:12.606Z,20.77
2023-02-28T12:42:13.614Z,20.85
2023-02-28T12:43:12.638Z,20.82
2023-02-28T12:44:13.626Z,20.83
2023-02-28T12:45:12.647Z,20.99
2023-02-28T12:46:13.754Z,20.93
2023-02-28T12:47:12.653Z,20.86
2023-02-28T12:48:13.671Z,20.96
2023-02-28T12:49:12.666Z,20.91
2023-02-28T12:50:13.761Z,20.85
2023-02-28T12:51:13.682Z,20.90
2023-02-28T12:52:13.695Z,20.78
2023-02-28T12:53:13.699Z,20.89
2023-02-28T12:54:13.714Z,20.91
2023-02-28T12:55:12.703Z,20.83
2023-02-28T12:56:13.722Z,20.83
2023-02-28T12:57:13.809Z,20.82
2023-02-28T12:58:12.736Z,20.88
2023-02-28T12:59:13.766Z,20.78
2023-02-28T13:00:13.758Z,20.86
2023-02-28T13:01:13.763Z,21.00
2023-02-28T13:02:12.805Z,20.73
2023-02-28T13:03:13.782Z,20.72
2023-02-28T13:04:12.778Z,20.78
2023-02-28T13:05:13.824Z,20.73
2023-02-28T13:06:12.811Z,20.75
2023-02-28T13:07:13.828Z,20.83
2023-02-28T13:08:13.822Z,20.82
2023-02-28T13:09:13.819Z,20.72
2023-02-28T13:10:12.846Z,20.64
2023-02-28T13:11:21.623Z,20.75
2023-02-28T13:12:13.856Z,20.77
2023-02-28T13:13:12.852Z,20.61
2023-02-28T13:14:13.826Z,20.64
2023-02-28T13:15:13.863Z,20.56
2023-02-28T13:16:13.809Z,20.61
2023-02-28T13:17:12.841Z,20.65
2023-02-28T13:18:13.789Z,20.51
2023-02-28T13:19:13.780Z,20.66
2023-02-28T13:20:13.774Z,20.61
2023-02-28T13:21:13.761Z,20.59
2023-02-28T13:22:12.768Z,20.49
2023-02-28T13:23:13.766Z,20.58
2023-02-28T13:24:13.755Z,20.57
2023-02-28T13:25:13.734Z,20.62
2023-02-28T13:26:13.733Z,20.54
2023-02-28T13:27:13.740Z,20.65
2023-02-28T13:28:13.726Z,20.53
2023-02-28T13:29:13.716Z,20.57
2023-02-28T13:30:12.706Z,20.48
2023-02-28T13:31:13.825Z,20.49
2023-02-28T13:32:13.739Z,20.43
2023-02-28T13:33:13.706Z,20.37
2023-02-28T13:34:13.688Z,20.31
2023-02-28T13:35:13.669Z,20.37
2023-02-28T13:36:13.661Z,20.45
2023-02-28T13:37:13.654Z,20.45
2023-02-28T13:38:12.642Z,20.57
2023-02-28T13:39:12.634Z,20.62
2023-02-28T13:40:12.641Z,20.62
2023-02-28T13:41:13.614Z,20.73
2023-02-28T13:42:12.607Z,20.88
2023-02-28T13:43:12.748Z,20.85
2023-02-28T13:44:13.596Z,21.02
2023-02-28T13:45:13.604Z,20.97
2023-02-28T13:46:13.858Z,21.13
2023-02-28T13:47:13.590Z,21.13
2023-02-28T13:48:13.577Z,21.27
2023-02-28T13:49:13.564Z,21.27
2023-02-28T13:50:12.556Z,21.45
2023-02-28T13:51:13.551Z,21.36
2023-02-28T13:52:12.532Z,21.34
2023-02-28T13:53:13.538Z,21.34
2023-02-28T13:54:12.523Z,21.39
2023-02-28T13:55:13.515Z,21.32
2023-02-28T13:56:13.503Z,21.29
2023-02-28T13:57:13.515Z,21.34
2023-02-28T13:58:13.508Z,21.28
2023-02-28T13:59:13.499Z,21.13
2023-02-28T14:00:12.470Z,21.18
2023-02-28T14:01:12.518Z,21.10
2023-02-28T14:02:13.465Z,21.10
2023-02-28T14:03:12.523Z,21.17
2023-02-28T14:04:13.451Z,21.16
2023-02-28T14:05:12.443Z,21.31
2023-02-28T14:06:13.430Z,21.24
2023-02-28T14:07:13.442Z,21.31
2023-02-28T14:08:13.419Z,21.21
2023-02-28T14:09:12.417Z,21.24
2023-02-28T14:10:13.405Z,21.21
2023-02-28T14:11:12.428Z,21.18
2023-02-28T14:12:12.391Z,21.27
2023-02-28T14:13:12.389Z,21.32
2023-02-28T14:14:13.375Z,21.28
2023-02-28T14:15:13.381Z,21.28
2023-02-28T14:16:13.426Z,21.21
2023-02-28T14:17:13.355Z,21.31
2023-02-28T14:18:12.364Z,21.34
2023-02-28T14:19:13.382Z,21.39
2023-02-28T14:20:13.344Z,21.29
2023-02-28T14:21:13.335Z,21.33
2023-02-28T14:22:12.316Z,21.26
2023-02-28T14:23:13.336Z,21.30
2023-02-28T14:24:13.304Z,21.29
2023-02-28T14:25:13.310Z,21.25
2023-02-28T14:26:13.291Z,21.34
2023-02-28T14:27:12.289Z,21.43
2023-02-28T14:28:13.295Z,21.34
2023-02-28T14:29:13.313Z,21.34
2023-02-28T14:30:13.264Z,21.45
2023-02-28T14:31:12.371Z,21.42
2023-02-28T14:32:13.280Z,21.31
2023-02-28T14:33:13.246Z,21.30
2023-02-28T14:34:12.228Z,21.23
2023-02-28T14:35:12.248Z,21.24
2023-02-28T14:36:12.230Z,21.24
2023-02-28T14:37:12.240Z,21.11
2023-02-28T14:38:13.260Z,21.13
2023-02-28T14:39:13.274Z,21.15
2023-02-28T14:40:13.275Z,21.08
2023-02-28T14:41:13.283Z,20.98
2023-02-28T14:42:12.293Z,20.92
2023-02-28T14:43:13.302Z,21.07
2023-02-28T14:44:13.324Z,21.02
2023-02-28T14:45:13.336Z,21.05
2023-02-28T14:46:13.365Z,21.12
2023-02-28T14:47:13.361Z,21.08
2023-02-28T14:48:13.381Z,21.32
2023-02-28T14:49:13.390Z,21.23
2023-02-28T14:50:13.395Z,21.34
2023-02-28T14:51:13.437Z,21.37
2023-02-28T14:52:13.395Z,21.42
2023-02-28T14:53:13.434Z,21.37
2023-02-28T14:54:13.411Z,21.48
2023-02-28T14:55:12.410Z,21.52
2023-02-28T14:56:13.418Z,21.52
2023-02-28T14:57:13.405Z,21.58
2023-02-28T14:58:13.423Z,21.66
2023-02-28T14:59:13.421Z,21.77
2023-02-28T15:00:12.430Z,21.72
2023-02-28T15:01:13.430Z,21.83
2023-02-28T15:02:12.428Z,21.82
2023-02-28T15:03:13.435Z,21.98
2023-02-28T15:04:13.430Z,21.97
2023-02-28T15:05:13.428Z,22.05
2023-02-28T15:06:13.427Z,22.11
2023-02-28T15:07:13.469Z,22.02
2023-02-28T15:08:13.447Z,22.00
2023-02-28T15:09:13.982Z,22.00
2023-02-28T15:10:12.438Z,22.06
2023-02-28T15:11:12.435Z,22.00
2023-02-28T15:12:13.440Z,21.93
2023-02-28T15:13:12.455Z,22.02
2023-02-28T15:14:13.432Z,22.01
2023-02-28T15:15:12.427Z,22.03
2023-02-28T15:16:13.469Z,22.03
2023-02-28T15:17:13.426Z,22.11
2023-02-28T15:18:12.443Z,22.10
2023-02-28T15:19:13.423Z,22.06
2023-02-28T15:20:13.481Z,22.08
2023-02-28T15:21:12.396Z,22.33
2023-02-28T15:22:13.424Z,22.27
2023-02-28T15:23:13.413Z,22.29
2023-02-28T15:24:13.385Z,22.29
2023-02-28T15:25:12.395Z,22.32
2023-02-28T15:26:12.461Z,22.36
2023-02-28T15:27:12.382Z,22.33
2023-02-28T15:28:13.381Z,22.51
2023-02-28T15:29:13.379Z,22.45
2023-02-28T15:30:12.372Z,22.54
2023-02-28T15:31:12.423Z,22.46
2023-02-28T15:32:13.511Z,22.59
2023-02-28T15:33:13.367Z,22.56
2023-02-28T15:34:13.343Z,22.60
2023-02-28T15:35:13.332Z,22.67
2023-02-28T15:36:13.375Z,22.67
2023-02-28T15:37:13.332Z,22.64
2023-02-28T15:38:13.399Z,22.67
2023-02-28T15:39:16.226Z,22.58
2023-02-28T15:40:13.335Z,22.60
2023-02-28T15:41:13.333Z,22.59
2023-02-28T15:42:12.315Z,22.56
2023-02-28T15:43:13.307Z,22.67
2023-02-28T15:44:13.283Z,22.60
2023-02-28T15:45:12.275Z,22.54
2023-02-28T15:46:12.415Z,22.60
2023-02-28T15:47:13.262Z,22.67
2023-02-28T15:48:14.411Z,22.63
2023-02-28T15:49:13.258Z,22.46
2023-02-28T15:50:12.253Z,22.43
2023-02-28T15:51:12.262Z,22.36
2023-02-28T15:52:13.239Z,22.30
2023-02-28T15:53:13.228Z,22.27
2023-02-28T15:54:12.265Z,22.30
2023-02-28T15:55:13.236Z,22.36
2023-02-28T15:56:13.193Z,22.30
2023-02-28T15:57:13.199Z,22.19
2023-02-28T15:58:13.189Z,22.22
2023-02-28T15:59:13.184Z,22.20
2023-02-28T16:00:13.162Z,22.11
2023-02-28T16:01:13.165Z,22.02
2023-02-28T16:02:13.343Z,22.00
2023-02-28T16:03:12.240Z,21.98
2023-02-28T16:04:13.136Z,21.92
2023-02-28T16:05:13.136Z,22.03
2023-02-28T16:06:13.128Z,22.09
2023-02-28T16:07:13.122Z,21.85
2023-02-28T16:08:12.145Z,21.79
2023-02-28T16:09:12.099Z,21.95
2023-02-28T16:10:13.111Z,21.92
2023-02-28T16:11:13.133Z,21.97
2023-02-28T16:12:13.128Z,21.94
2023-02-28T16:13:13.138Z,21.92
2023-02-28T16:14:12.151Z,21.92
2023-02-28T16:15:13.170Z,21.94
2023-02-28T16:16:12.242Z,21.99
2023-02-28T16:17:13.196Z,21.94
2023-02-28T16:18:13.270Z,21.87
2023-02-28T16:19:13.230Z,21.87
2023-02-28T16:20:13.255Z,21.82
2023-02-28T16:21:13.326Z,21.79
2023-02-28T16:22:12.332Z,21.84
2023-02-28T16:23:13.355Z,21.89
2023-02-28T16:24:13.393Z,21.84
2023-02-28T16:25:12.415Z,21.89
2023-02-28T16:26:13.501Z,21.87
2023-02-28T16:27:13.531Z,21.85
2023-02-28T16:28:13.554Z,21.96
2023-02-28T16:29:13.587Z,22.04
